KDBQ

Dubuque Regional Airport

Dubuque, Iowa, USA
METAR KDBQ 201504Z 30006KT 5SM -RA BR SCT005 OVC018 01/00 A2982 RMK AO2 RAB1459UPB00E04 P0000 T00110000
Observed Flight Rules
Feb-20 @ 15:04 UTC (2 hours ago) Marginal Visual Flight Rules
Wind Visibility Clouds Conditions
300° at 6 knots 5 miles
  • Scattered at 500' AGL
  • Overcast at 1,800' AGL
  • Light Rain
  • Mist
Temperatures Readings Precipitation
Current 1°C / 34°F
Dewpoint 0°C / 32°F
Humidity 93%
Altimeter 29.82" Hg
Pressure 1010 hPa
Elevation 326
Current Rain 0.005
METAR KDBQ 201504Z 30006KT 5SM -RA BR SCT005 OVC018 01/00 A2982 RMK AO2 RAB1459UPB00E04 P0000 T00110000
Observed Flight Rules
Feb-20 @ 15:04 UTC
(2 hours ago)
MVFR
Wind Visibility
300° at 6 knots 5 miles
Clouds
  • Scattered at 500' AGL
  • Overcast at 1,800' AGL
Conditions
  • Light Rain
  • Mist
Temperature Dewpoint
1°C / 34°F 0°C / 32°F
Humidity Altimeter Pressure
93% 29.82" Hg 1010 hPa
Current Rain
0.005